sensor_id;sensor_type;location;lat;lon;timestamp;P1;durP1;ratioP1;P2;durP2;ratioP2
7426;SDS011;3755;59.316;18.092;2024-02-15T00:01:13;48.63;;;9.03;;
7426;SDS011;3755;59.316;18.092;2024-02-15T00:03:42;85.00;;;9.33;;
7426;SDS011;3755;59.316;18.092;2024-02-15T00:06:09;56.27;;;8.90;;
7426;SDS011;3755;59.316;18.092;2024-02-15T00:08:37;26.37;;;7.67;;
7426;SDS011;3755;59.316;18.092;2024-02-15T00:11:04;48.77;;;7.80;;
7426;SDS011;3755;59.316;18.092;2024-02-15T00:13:31;59.20;;;9.17;;
7426;SDS011;3755;59.316;18.092;2024-02-15T00:15:58;50.57;;;9.27;;
7426;SDS011;3755;59.316;18.092;2024-02-15T00:18:26;69.53;;;8.80;;
7426;SDS011;3755;59.316;18.092;2024-02-15T00:20:54;38.70;;;7.40;;
7426;SDS011;3755;59.316;18.092;2024-02-15T00:23:21;61.27;;;8.67;;
7426;SDS011;3755;59.316;18.092;2024-02-15T00:25:48;47.33;;;8.07;;
7426;SDS011;3755;59.316;18.092;2024-02-15T00:28:15;56.23;;;8.43;;
7426;SDS011;3755;59.316;18.092;2024-02-15T00:30:42;49.20;;;7.77;;
7426;SDS011;3755;59.316;18.092;2024-02-15T00:33:10;83.67;;;9.23;;
7426;SDS011;3755;59.316;18.092;2024-02-15T00:35:37;93.17;;;9.30;;
7426;SDS011;3755;59.316;18.092;2024-02-15T00:38:05;112.27;;;12.33;;
7426;SDS011;3755;59.316;18.092;2024-02-15T00:40:33;58.00;;;8.30;;
7426;SDS011;3755;59.316;18.092;2024-02-15T00:43:00;58.10;;;7.60;;
7426;SDS011;3755;59.316;18.092;2024-02-15T00:45:27;52.97;;;9.73;;
7426;SDS011;3755;59.316;18.092;2024-02-15T00:47:54;64.77;;;8.67;;
7426;SDS011;3755;59.316;18.092;2024-02-15T00:50:21;114.70;;;10.70;;
7426;SDS011;3755;59.316;18.092;2024-02-15T00:52:48;42.43;;;7.57;;
7426;SDS011;3755;59.316;18.092;2024-02-15T00:55:17;42.67;;;8.33;;
7426;SDS011;3755;59.316;18.092;2024-02-15T00:57:44;69.63;;;8.07;;
7426;SDS011;3755;59.316;18.092;2024-02-15T01:00:11;102.23;;;12.07;;
7426;SDS011;3755;59.316;18.092;2024-02-15T01:02:40;28.43;;;7.30;;
7426;SDS011;3755;59.316;18.092;2024-02-15T01:05:07;58.03;;;8.57;;
7426;SDS011;3755;59.316;18.092;2024-02-15T01:07:35;45.83;;;8.57;;
7426;SDS011;3755;59.316;18.092;2024-02-15T01:10:02;48.37;;;8.60;;
7426;SDS011;3755;59.316;18.092;2024-02-15T01:12:32;41.70;;;7.80;;
7426;SDS011;3755;59.316;18.092;2024-02-15T01:14:59;58.50;;;8.30;;
7426;SDS011;3755;59.316;18.092;2024-02-15T01:17:26;97.03;;;10.17;;
7426;SDS011;3755;59.316;18.092;2024-02-15T01:19:54;58.27;;;8.57;;
7426;SDS011;3755;59.316;18.092;2024-02-15T01:22:21;50.73;;;8.37;;
7426;SDS011;3755;59.316;18.092;2024-02-15T01:24:51;51.10;;;8.33;;
7426;SDS011;3755;59.316;18.092;2024-02-15T01:27:18;51.43;;;8.17;;
7426;SDS011;3755;59.316;18.092;2024-02-15T01:29:46;45.70;;;7.60;;
7426;SDS011;3755;59.316;18.092;2024-02-15T01:32:13;67.10;;;8.60;;
7426;SDS011;3755;59.316;18.092;2024-02-15T01:34:41;68.60;;;9.03;;
7426;SDS011;3755;59.316;18.092;2024-02-15T01:37:08;109.77;;;11.50;;
7426;SDS011;3755;59.316;18.092;2024-02-15T01:39:35;75.77;;;9.03;;
7426;SDS011;3755;59.316;18.092;2024-02-15T01:42:02;47.80;;;7.13;;
7426;SDS011;3755;59.316;18.092;2024-02-15T01:44:30;42.43;;;6.57;;
7426;SDS011;3755;59.316;18.092;2024-02-15T01:46:59;48.60;;;7.07;;
7426;SDS011;3755;59.316;18.092;2024-02-15T01:49:26;49.27;;;7.30;;
7426;SDS011;3755;59.316;18.092;2024-02-15T01:51:54;31.83;;;7.30;;
7426;SDS011;3755;59.316;18.092;2024-02-15T01:54:23;44.30;;;7.37;;
7426;SDS011;3755;59.316;18.092;2024-02-15T01:56:51;83.67;;;8.73;;
7426;SDS011;3755;59.316;18.092;2024-02-15T01:59:19;66.47;;;7.60;;
7426;SDS011;3755;59.316;18.092;2024-02-15T02:01:49;63.57;;;7.93;;
7426;SDS011;3755;59.316;18.092;2024-02-15T02:04:18;90.77;;;9.43;;
7426;SDS011;3755;59.316;18.092;2024-02-15T02:06:45;71.77;;;9.20;;
7426;SDS011;3755;59.316;18.092;2024-02-15T02:09:12;94.83;;;9.90;;
7426;SDS011;3755;59.316;18.092;2024-02-15T02:11:40;75.50;;;8.93;;
7426;SDS011;3755;59.316;18.092;2024-02-15T02:14:07;100.07;;;9.23;;
7426;SDS011;3755;59.316;18.092;2024-02-15T02:16:34;130.77;;;9.47;;
7426;SDS011;3755;59.316;18.092;2024-02-15T02:19:02;63.40;;;7.30;;
7426;SDS011;3755;59.316;18.092;2024-02-15T02:21:34;44.33;;;5.80;;
7426;SDS011;3755;59.316;18.092;2024-02-15T02:24:06;40.67;;;5.77;;
7426;SDS011;3755;59.316;18.092;2024-02-15T02:26:40;49.73;;;6.37;;
7426;SDS011;3755;59.316;18.092;2024-02-15T02:29:07;52.33;;;7.03;;
7426;SDS011;3755;59.316;18.092;2024-02-15T02:31:36;37.57;;;6.07;;
7426;SDS011;3755;59.316;18.092;2024-02-15T02:34:03;60.63;;;6.53;;
7426;SDS011;3755;59.316;18.092;2024-02-15T02:36:31;81.53;;;8.30;;
7426;SDS011;3755;59.316;18.092;2024-02-15T02:38:58;47.40;;;5.97;;
7426;SDS011;3755;59.316;18.092;2024-02-15T02:41:26;39.17;;;6.60;;
7426;SDS011;3755;59.316;18.092;2024-02-15T02:43:56;70.30;;;7.77;;
7426;SDS011;3755;59.316;18.092;2024-02-15T02:46:24;69.37;;;8.03;;
7426;SDS011;3755;59.316;18.092;2024-02-15T02:48:51;54.73;;;7.50;;
7426;SDS011;3755;59.316;18.092;2024-02-15T02:51:18;112.43;;;9.70;;
7426;SDS011;3755;59.316;18.092;2024-02-15T02:53:45;94.60;;;10.13;;
7426;SDS011;3755;59.316;18.092;2024-02-15T02:56:12;57.97;;;7.27;;
7426;SDS011;3755;59.316;18.092;2024-02-15T02:58:40;74.67;;;7.97;;
7426;SDS011;3755;59.316;18.092;2024-02-15T03:01:09;50.67;;;6.33;;
7426;SDS011;3755;59.316;18.092;2024-02-15T03:03:38;53.03;;;7.13;;
7426;SDS011;3755;59.316;18.092;2024-02-15T03:06:05;33.80;;;6.13;;
7426;SDS011;3755;59.316;18.092;2024-02-15T03:08:32;27.10;;;7.13;;
7426;SDS011;3755;59.316;18.092;2024-02-15T03:10:59;52.27;;;6.47;;
7426;SDS011;3755;59.316;18.092;2024-02-15T03:13:27;28.37;;;6.00;;
7426;SDS011;3755;59.316;18.092;2024-02-15T03:15:54;24.77;;;5.73;;
7426;SDS011;3755;59.316;18.092;2024-02-15T03:18:22;66.73;;;8.00;;
7426;SDS011;3755;59.316;18.092;2024-02-15T03:20:49;61.57;;;7.20;;
7426;SDS011;3755;59.316;18.092;2024-02-15T03:23:16;22.57;;;5.27;;
7426;SDS011;3755;59.316;18.092;2024-02-15T03:25:43;33.97;;;5.87;;
7426;SDS011;3755;59.316;18.092;2024-02-15T03:28:12;30.73;;;5.33;;
7426;SDS011;3755;59.316;18.092;2024-02-15T03:30:41;31.83;;;6.17;;
7426;SDS011;3755;59.316;18.092;2024-02-15T03:33:09;31.00;;;7.27;;
7426;SDS011;3755;59.316;18.092;2024-02-15T03:35:38;24.83;;;6.17;;
7426;SDS011;3755;59.316;18.092;2024-02-15T03:38:06;46.63;;;7.03;;
7426;SDS011;3755;59.316;18.092;2024-02-15T03:40:33;76.40;;;7.70;;
7426;SDS011;3755;59.316;18.092;2024-02-15T03:43:01;94.47;;;9.17;;
7426;SDS011;3755;59.316;18.092;2024-02-15T03:45:31;40.63;;;7.27;;
7426;SDS011;3755;59.316;18.092;2024-02-15T03:47:58;63.53;;;6.80;;
7426;SDS011;3755;59.316;18.092;2024-02-15T03:50:25;23.83;;;5.27;;
7426;SDS011;3755;59.316;18.092;2024-02-15T03:52:55;24.07;;;6.07;;
7426;SDS011;3755;59.316;18.092;2024-02-15T03:55:22;20.80;;;4.97;;
7426;SDS011;3755;59.316;18.092;2024-02-15T03:57:50;34.13;;;5.87;;
7426;SDS011;3755;59.316;18.092;2024-02-15T04:00:19;35.03;;;5.77;;
7426;SDS011;3755;59.316;18.092;2024-02-15T04:02:46;70.47;;;6.93;;
7426;SDS011;3755;59.316;18.092;2024-02-15T04:05:14;68.37;;;7.13;;
7426;SDS011;3755;59.316;18.092;2024-02-15T04:07:43;33.47;;;5.33;;
7426;SDS011;3755;59.316;18.092;2024-02-15T04:10:11;24.47;;;5.07;;
7426;SDS011;3755;59.316;18.092;2024-02-15T04:12:38;90.80;;;9.37;;
7426;SDS011;3755;59.316;18.092;2024-02-15T04:15:07;52.83;;;6.77;;
7426;SDS011;3755;59.316;18.092;2024-02-15T04:17:39;25.43;;;5.13;;
7426;SDS011;3755;59.316;18.092;2024-02-15T04:20:07;25.00;;;5.40;;
7426;SDS011;3755;59.316;18.092;2024-02-15T04:22:36;136.97;;;11.00;;
7426;SDS011;3755;59.316;18.092;2024-02-15T04:25:04;61.93;;;7.47;;
7426;SDS011;3755;59.316;18.092;2024-02-15T04:27:33;23.37;;;4.93;;
7426;SDS011;3755;59.316;18.092;2024-02-15T04:30:00;29.00;;;4.83;;
7426;SDS011;3755;59.316;18.092;2024-02-15T04:32:29;26.33;;;6.30;;
7426;SDS011;3755;59.316;18.092;2024-02-15T04:34:58;25.27;;;5.43;;
7426;SDS011;3755;59.316;18.092;2024-02-15T04:37:26;14.27;;;5.47;;
7426;SDS011;3755;59.316;18.092;2024-02-15T04:39:57;47.37;;;6.73;;
7426;SDS011;3755;59.316;18.092;2024-02-15T04:42:32;34.77;;;6.60;;
7426;SDS011;3755;59.316;18.092;2024-02-15T04:45:02;42.47;;;5.73;;
7426;SDS011;3755;59.316;18.092;2024-02-15T04:47:30;28.40;;;6.17;;
7426;SDS011;3755;59.316;18.092;2024-02-15T04:49:58;37.80;;;6.83;;
7426;SDS011;3755;59.316;18.092;2024-02-15T04:52:25;16.07;;;5.60;;
7426;SDS011;3755;59.316;18.092;2024-02-15T04:54:52;12.80;;;5.27;;
7426;SDS011;3755;59.316;18.092;2024-02-15T04:57:20;11.40;;;5.13;;
7426;SDS011;3755;59.316;18.092;2024-02-15T04:59:48;14.17;;;5.73;;
7426;SDS011;3755;59.316;18.092;2024-02-15T05:02:15;14.87;;;5.57;;
7426;SDS011;3755;59.316;18.092;2024-02-15T05:04:44;157.73;;;12.70;;
7426;SDS011;3755;59.316;18.092;2024-02-15T05:07:12;145.70;;;11.60;;
7426;SDS011;3755;59.316;18.092;2024-02-15T05:09:42;39.27;;;6.47;;
7426;SDS011;3755;59.316;18.092;2024-02-15T05:12:09;25.03;;;6.87;;
7426;SDS011;3755;59.316;18.092;2024-02-15T05:14:36;119.97;;;10.37;;
7426;SDS011;3755;59.316;18.092;2024-02-15T05:17:06;75.33;;;8.17;;
7426;SDS011;3755;59.316;18.092;2024-02-15T05:19:37;61.43;;;8.73;;
7426;SDS011;3755;59.316;18.092;2024-02-15T05:22:04;91.63;;;8.03;;
7426;SDS011;3755;59.316;18.092;2024-02-15T05:24:33;81.20;;;9.63;;
7426;SDS011;3755;59.316;18.092;2024-02-15T05:27:00;61.70;;;8.83;;
7426;SDS011;3755;59.316;18.092;2024-02-15T05:29:28;62.77;;;8.93;;
7426;SDS011;3755;59.316;18.092;2024-02-15T05:31:59;49.03;;;6.90;;
7426;SDS011;3755;59.316;18.092;2024-02-15T05:34:28;64.43;;;6.90;;
7426;SDS011;3755;59.316;18.092;2024-02-15T05:36:55;39.60;;;7.33;;
7426;SDS011;3755;59.316;18.092;2024-02-15T05:39:22;48.17;;;8.17;;
7426;SDS011;3755;59.316;18.092;2024-02-15T05:41:50;39.13;;;8.13;;
7426;SDS011;3755;59.316;18.092;2024-02-15T05:44:17;43.40;;;7.70;;
7426;SDS011;3755;59.316;18.092;2024-02-15T05:46:46;135.70;;;12.47;;
7426;SDS011;3755;59.316;18.092;2024-02-15T05:49:13;61.17;;;8.20;;
7426;SDS011;3755;59.316;18.092;2024-02-15T05:51:44;32.80;;;9.33;;
7426;SDS011;3755;59.316;18.092;2024-02-15T05:54:12;23.33;;;7.43;;
7426;SDS011;3755;59.316;18.092;2024-02-15T05:56:39;26.60;;;6.40;;
7426;SDS011;3755;59.316;18.092;2024-02-15T05:59:08;20.33;;;6.67;;
7426;SDS011;3755;59.316;18.092;2024-02-15T06:01:37;62.80;;;7.70;;
7426;SDS011;3755;59.316;18.092;2024-02-15T06:04:06;24.40;;;7.00;;
7426;SDS011;3755;59.316;18.092;2024-02-15T06:06:34;44.50;;;7.10;;
7426;SDS011;3755;59.316;18.092;2024-02-15T06:09:02;65.70;;;8.00;;
7426;SDS011;3755;59.316;18.092;2024-02-15T06:11:31;22.00;;;5.97;;
7426;SDS011;3755;59.316;18.092;2024-02-15T06:13:58;40.27;;;6.93;;
7426;SDS011;3755;59.316;18.092;2024-02-15T06:16:25;37.33;;;7.03;;
7426;SDS011;3755;59.316;18.092;2024-02-15T06:18:52;89.80;;;10.20;;
7426;SDS011;3755;59.316;18.092;2024-02-15T06:21:20;27.43;;;6.33;;
7426;SDS011;3755;59.316;18.092;2024-02-15T06:23:49;30.63;;;6.13;;
7426;SDS011;3755;59.316;18.092;2024-02-15T06:26:20;25.57;;;5.70;;
7426;SDS011;3755;59.316;18.092;2024-02-15T06:28:47;21.30;;;6.37;;
7426;SDS011;3755;59.316;18.092;2024-02-15T06:31:32;19.87;;;6.13;;
7426;SDS011;3755;59.316;18.092;2024-02-15T06:34:21;20.37;;;6.67;;
7426;SDS011;3755;59.316;18.092;2024-02-15T06:37:06;15.23;;;5.07;;
7426;SDS011;3755;59.316;18.092;2024-02-15T06:39:50;26.00;;;7.00;;
7426;SDS011;3755;59.316;18.092;2024-02-15T06:42:19;29.13;;;6.00;;
7426;SDS011;3755;59.316;18.092;2024-02-15T06:44:47;38.17;;;6.80;;
7426;SDS011;3755;59.316;18.092;2024-02-15T06:47:15;25.00;;;7.33;;
7426;SDS011;3755;59.316;18.092;2024-02-15T06:49:45;31.93;;;7.00;;
7426;SDS011;3755;59.316;18.092;2024-02-15T06:52:16;42.00;;;8.03;;
7426;SDS011;3755;59.316;18.092;2024-02-15T06:54:43;35.43;;;8.33;;
7426;SDS011;3755;59.316;18.092;2024-02-15T06:57:11;48.00;;;8.33;;
7426;SDS011;3755;59.316;18.092;2024-02-15T06:59:40;46.97;;;9.03;;
7426;SDS011;3755;59.316;18.092;2024-02-15T07:02:07;40.67;;;8.00;;
7426;SDS011;3755;59.316;18.092;2024-02-15T07:04:34;66.20;;;9.70;;
7426;SDS011;3755;59.316;18.092;2024-02-15T07:07:02;40.77;;;7.93;;
7426;SDS011;3755;59.316;18.092;2024-02-15T07:09:29;54.87;;;10.50;;
7426;SDS011;3755;59.316;18.092;2024-02-15T07:11:57;32.57;;;7.90;;
7426;SDS011;3755;59.316;18.092;2024-02-15T07:14:25;43.97;;;9.60;;
7426;SDS011;3755;59.316;18.092;2024-02-15T07:16:55;27.07;;;8.60;;
7426;SDS011;3755;59.316;18.092;2024-02-15T07:19:23;29.07;;;8.87;;
7426;SDS011;3755;59.316;18.092;2024-02-15T07:21:53;33.17;;;8.37;;
7426;SDS011;3755;59.316;18.092;2024-02-15T07:24:26;23.67;;;8.27;;
7426;SDS011;3755;59.316;18.092;2024-02-15T07:27:28;38.97;;;8.63;;
7426;SDS011;3755;59.316;18.092;2024-02-15T07:30:00;37.27;;;9.07;;
7426;SDS011;3755;59.316;18.092;2024-02-15T07:32:33;42.13;;;9.63;;
7426;SDS011;3755;59.316;18.092;2024-02-15T07:35:00;31.97;;;8.70;;
7426;SDS011;3755;59.316;18.092;2024-02-15T07:37:32;30.43;;;8.77;;
7426;SDS011;3755;59.316;18.092;2024-02-15T07:40:01;37.60;;;8.77;;
7426;SDS011;3755;59.316;18.092;2024-02-15T07:42:32;29.33;;;8.43;;
7426;SDS011;3755;59.316;18.092;2024-02-15T07:45:03;35.57;;;9.20;;
7426;SDS011;3755;59.316;18.092;2024-02-15T07:47:36;28.40;;;9.03;;
7426;SDS011;3755;59.316;18.092;2024-02-15T07:50:04;33.70;;;10.13;;
7426;SDS011;3755;59.316;18.092;2024-02-15T07:52:32;35.33;;;10.07;;
7426;SDS011;3755;59.316;18.092;2024-02-15T07:54:59;40.10;;;11.67;;
7426;SDS011;3755;59.316;18.092;2024-02-15T07:57:34;35.60;;;9.73;;
7426;SDS011;3755;59.316;18.092;2024-02-15T08:00:01;31.83;;;9.13;;
7426;SDS011;3755;59.316;18.092;2024-02-15T08:02:31;36.77;;;11.00;;
7426;SDS011;3755;59.316;18.092;2024-02-15T08:04:59;45.40;;;10.17;;
7426;SDS011;3755;59.316;18.092;2024-02-15T08:07:30;36.23;;;9.20;;
7426;SDS011;3755;59.316;18.092;2024-02-15T08:10:00;32.70;;;12.00;;
7426;SDS011;3755;59.316;18.092;2024-02-15T08:12:28;47.43;;;13.00;;
7426;SDS011;3755;59.316;18.092;2024-02-15T08:14:55;31.80;;;10.90;;
7426;SDS011;3755;59.316;18.092;2024-02-15T08:17:23;33.67;;;12.33;;
7426;SDS011;3755;59.316;18.092;2024-02-15T08:19:53;29.23;;;10.73;;
7426;SDS011;3755;59.316;18.092;2024-02-15T08:22:20;25.60;;;10.67;;
7426;SDS011;3755;59.316;18.092;2024-02-15T08:24:49;33.37;;;11.43;;
7426;SDS011;3755;59.316;18.092;2024-02-15T08:27:21;26.80;;;10.33;;
7426;SDS011;3755;59.316;18.092;2024-02-15T08:29:59;39.90;;;16.77;;
7426;SDS011;3755;59.316;18.092;2024-02-15T08:32:48;30.57;;;13.13;;
7426;SDS011;3755;59.316;18.092;2024-02-15T08:35:19;29.53;;;12.27;;
7426;SDS011;3755;59.316;18.092;2024-02-15T08:37:46;28.07;;;12.30;;
7426;SDS011;3755;59.316;18.092;2024-02-15T08:40:16;31.53;;;12.63;;
7426;SDS011;3755;59.316;18.092;2024-02-15T08:42:52;28.47;;;11.53;;
7426;SDS011;3755;59.316;18.092;2024-02-15T08:45:21;33.13;;;13.13;;
7426;SDS011;3755;59.316;18.092;2024-02-15T08:47:49;32.77;;;12.13;;
7426;SDS011;3755;59.316;18.092;2024-02-15T08:50:21;26.90;;;11.97;;
7426;SDS011;3755;59.316;18.092;2024-02-15T08:52:50;28.00;;;11.53;;
7426;SDS011;3755;59.316;18.092;2024-02-15T08:55:17;27.47;;;11.97;;
7426;SDS011;3755;59.316;18.092;2024-02-15T08:57:55;30.20;;;12.73;;
7426;SDS011;3755;59.316;18.092;2024-02-15T09:00:25;26.80;;;12.50;;
7426;SDS011;3755;59.316;18.092;2024-02-15T09:02:54;28.07;;;12.20;;
7426;SDS011;3755;59.316;18.092;2024-02-15T09:05:29;29.30;;;11.57;;
7426;SDS011;3755;59.316;18.092;2024-02-15T09:07:59;25.47;;;11.27;;
7426;SDS011;3755;59.316;18.092;2024-02-15T09:10:43;27.30;;;11.13;;
7426;SDS011;3755;59.316;18.092;2024-02-15T09:13:14;25.53;;;11.00;;
7426;SDS011;3755;59.316;18.092;2024-02-15T09:15:44;29.10;;;11.10;;
7426;SDS011;3755;59.316;18.092;2024-02-15T09:18:14;30.40;;;12.10;;
7426;SDS011;3755;59.316;18.092;2024-02-15T09:20:56;25.57;;;11.37;;
7426;SDS011;3755;59.316;18.092;2024-02-15T09:23:23;24.20;;;11.77;;
7426;SDS011;3755;59.316;18.092;2024-02-15T09:25:51;24.97;;;11.80;;
7426;SDS011;3755;59.316;18.092;2024-02-15T09:28:18;24.83;;;12.00;;
7426;SDS011;3755;59.316;18.092;2024-02-15T09:30:47;18.70;;;10.03;;
7426;SDS011;3755;59.316;18.092;2024-02-15T09:33:17;22.30;;;10.97;;
7426;SDS011;3755;59.316;18.092;2024-02-15T09:35:45;25.23;;;10.83;;
7426;SDS011;3755;59.316;18.092;2024-02-15T09:38:14;17.73;;;10.00;;
7426;SDS011;3755;59.316;18.092;2024-02-15T09:40:51;17.80;;;10.13;;
7426;SDS011;3755;59.316;18.092;2024-02-15T09:43:21;22.57;;;9.77;;
7426;SDS011;3755;59.316;18.092;2024-02-15T09:45:52;18.53;;;9.87;;
7426;SDS011;3755;59.316;18.092;2024-02-15T09:48:20;21.50;;;11.27;;
7426;SDS011;3755;59.316;18.092;2024-02-15T09:50:57;17.83;;;9.57;;
7426;SDS011;3755;59.316;18.092;2024-02-15T09:53:31;17.53;;;9.20;;
7426;SDS011;3755;59.316;18.092;2024-02-15T09:56:05;15.57;;;8.73;;
7426;SDS011;3755;59.316;18.092;2024-02-15T09:58:33;18.20;;;9.63;;
7426;SDS011;3755;59.316;18.092;2024-02-15T10:01:02;21.17;;;10.50;;
7426;SDS011;3755;59.316;18.092;2024-02-15T10:03:36;16.10;;;9.43;;
7426;SDS011;3755;59.316;18.092;2024-02-15T10:06:07;19.83;;;8.63;;
7426;SDS011;3755;59.316;18.092;2024-02-15T10:08:42;17.90;;;10.40;;
7426;SDS011;3755;59.316;18.092;2024-02-15T10:11:11;16.23;;;9.43;;
7426;SDS011;3755;59.316;18.092;2024-02-15T10:13:43;18.73;;;9.63;;
7426;SDS011;3755;59.316;18.092;2024-02-15T10:16:43;20.70;;;10.67;;
7426;SDS011;3755;59.316;18.092;2024-02-15T10:19:14;19.13;;;9.47;;
7426;SDS011;3755;59.316;18.092;2024-02-15T10:21:44;18.10;;;8.90;;
7426;SDS011;3755;59.316;18.092;2024-02-15T10:24:27;20.97;;;9.33;;
7426;SDS011;3755;59.316;18.092;2024-02-15T10:27:12;21.10;;;9.90;;
7426;SDS011;3755;59.316;18.092;2024-02-15T10:29:41;22.13;;;9.40;;
7426;SDS011;3755;59.316;18.092;2024-02-15T10:32:10;26.60;;;9.97;;
7426;SDS011;3755;59.316;18.092;2024-02-15T10:34:43;20.23;;;9.67;;
7426;SDS011;3755;59.316;18.092;2024-02-15T10:37:13;18.60;;;8.93;;
7426;SDS011;3755;59.316;18.092;2024-02-15T10:39:44;18.80;;;9.63;;
7426;SDS011;3755;59.316;18.092;2024-02-15T10:42:12;21.03;;;9.47;;
7426;SDS011;3755;59.316;18.092;2024-02-15T10:44:40;16.33;;;8.93;;
7426;SDS011;3755;59.316;18.092;2024-02-15T10:47:15;21.40;;;9.60;;
7426;SDS011;3755;59.316;18.092;2024-02-15T10:49:48;25.83;;;9.43;;
7426;SDS011;3755;59.316;18.092;2024-02-15T10:52:17;15.70;;;9.03;;
7426;SDS011;3755;59.316;18.092;2024-02-15T10:54:52;24.13;;;10.30;;
7426;SDS011;3755;59.316;18.092;2024-02-15T10:57:42;20.23;;;9.83;;
7426;SDS011;3755;59.316;18.092;2024-02-15T11:00:13;26.73;;;9.23;;
7426;SDS011;3755;59.316;18.092;2024-02-15T11:02:49;21.93;;;9.07;;
7426;SDS011;3755;59.316;18.092;2024-02-15T11:05:27;25.03;;;9.90;;
7426;SDS011;3755;59.316;18.092;2024-02-15T11:07:59;26.83;;;9.17;;
7426;SDS011;3755;59.316;18.092;2024-02-15T11:13:29;26.33;;;9.27;;
7426;SDS011;3755;59.316;18.092;2024-02-15T11:15:56;17.53;;;8.73;;
7426;SDS011;3755;59.316;18.092;2024-02-15T11:18:42;18.80;;;8.80;;
7426;SDS011;3755;59.316;18.092;2024-02-15T11:24:34;29.93;;;9.17;;
7426;SDS011;3755;59.316;18.092;2024-02-15T11:27:04;23.17;;;9.03;;
7426;SDS011;3755;59.316;18.092;2024-02-15T11:29:47;24.07;;;9.40;;
7426;SDS011;3755;59.316;18.092;2024-02-15T11:32:35;19.80;;;8.97;;
7426;SDS011;3755;59.316;18.092;2024-02-15T11:35:05;15.90;;;8.50;;
7426;SDS011;3755;59.316;18.092;2024-02-15T11:43:48;21.83;;;10.37;;
7426;SDS011;3755;59.316;18.092;2024-02-15T11:46:41;18.23;;;9.57;;
7426;SDS011;3755;59.316;18.092;2024-02-15T11:49:14;16.33;;;9.47;;
7426;SDS011;3755;59.316;18.092;2024-02-15T11:51:47;16.33;;;8.97;;
7426;SDS011;3755;59.316;18.092;2024-02-15T11:54:20;22.33;;;9.70;;
7426;SDS011;3755;59.316;18.092;2024-02-15T11:57:29;21.03;;;9.50;;
7426;SDS011;3755;59.316;18.092;2024-02-15T12:03:30;19.30;;;9.37;;
7426;SDS011;3755;59.316;18.092;2024-02-15T12:06:16;16.97;;;9.20;;
7426;SDS011;3755;59.316;18.092;2024-02-15T12:09:03;20.47;;;9.80;;
7426;SDS011;3755;59.316;18.092;2024-02-15T12:12:06;33.33;;;11.10;;
7426;SDS011;3755;59.316;18.092;2024-02-15T12:14:57;25.20;;;10.97;;
7426;SDS011;3755;59.316;18.092;2024-02-15T12:24:07;28.03;;;10.17;;
7426;SDS011;3755;59.316;18.092;2024-02-15T12:26:35;25.83;;;10.47;;
7426;SDS011;3755;59.316;18.092;2024-02-15T12:29:15;21.87;;;10.73;;
7426;SDS011;3755;59.316;18.092;2024-02-15T12:31:45;25.43;;;10.77;;
7426;SDS011;3755;59.316;18.092;2024-02-15T12:34:14;27.47;;;10.90;;
7426;SDS011;3755;59.316;18.092;2024-02-15T12:36:44;20.47;;;9.53;;
7426;SDS011;3755;59.316;18.092;2024-02-15T12:39:33;38.13;;;10.07;;
7426;SDS011;3755;59.316;18.092;2024-02-15T12:42:06;36.10;;;11.17;;
7426;SDS011;3755;59.316;18.092;2024-02-15T12:47:28;25.10;;;10.40;;
7426;SDS011;3755;59.316;18.092;2024-02-15T12:50:18;27.30;;;10.20;;
7426;SDS011;3755;59.316;18.092;2024-02-15T12:53:29;30.87;;;13.53;;
7426;SDS011;3755;59.316;18.092;2024-02-15T12:56:11;32.77;;;13.90;;
7426;SDS011;3755;59.316;18.092;2024-02-15T12:59:17;26.73;;;11.17;;
7426;SDS011;3755;59.316;18.092;2024-02-15T13:16:14;26.13;;;12.20;;
7426;SDS011;3755;59.316;18.092;2024-02-15T13:18:56;32.50;;;12.27;;
7426;SDS011;3755;59.316;18.092;2024-02-15T13:21:37;31.73;;;12.37;;
7426;SDS011;3755;59.316;18.092;2024-02-15T13:24:20;45.57;;;12.97;;
7426;SDS011;3755;59.316;18.092;2024-02-15T13:29:40;37.97;;;10.90;;
7426;SDS011;3755;59.316;18.092;2024-02-15T13:32:54;43.70;;;12.30;;
7426;SDS011;3755;59.316;18.092;2024-02-15T13:35:57;27.73;;;12.00;;
7426;SDS011;3755;59.316;18.092;2024-02-15T13:38:41;25.57;;;11.83;;
7426;SDS011;3755;59.316;18.092;2024-02-15T13:41:30;31.27;;;12.97;;
7426;SDS011;3755;59.316;18.092;2024-02-15T13:44:31;28.90;;;13.33;;
7426;SDS011;3755;59.316;18.092;2024-02-15T13:46:59;37.63;;;13.37;;
7426;SDS011;3755;59.316;18.092;2024-02-15T13:49:28;33.67;;;11.17;;
7426;SDS011;3755;59.316;18.092;2024-02-15T13:51:59;34.03;;;11.90;;
7426;SDS011;3755;59.316;18.092;2024-02-15T13:54:31;50.47;;;17.97;;
7426;SDS011;3755;59.316;18.092;2024-02-15T13:57:03;75.07;;;16.23;;
7426;SDS011;3755;59.316;18.092;2024-02-15T13:59:48;58.97;;;18.27;;
7426;SDS011;3755;59.316;18.092;2024-02-15T14:02:29;56.87;;;14.87;;
7426;SDS011;3755;59.316;18.092;2024-02-15T14:08:33;62.93;;;13.03;;
7426;SDS011;3755;59.316;18.092;2024-02-15T14:11:25;76.93;;;12.97;;
7426;SDS011;3755;59.316;18.092;2024-02-15T14:18:33;90.07;;;10.73;;
7426;SDS011;3755;59.316;18.092;2024-02-15T14:22:00;98.53;;;10.77;;
7426;SDS011;3755;59.316;18.092;2024-02-15T14:27:58;63.70;;;11.13;;
7426;SDS011;3755;59.316;18.092;2024-02-15T14:30:42;54.17;;;10.80;;
7426;SDS011;3755;59.316;18.092;2024-02-15T14:33:27;41.90;;;10.87;;
7426;SDS011;3755;59.316;18.092;2024-02-15T14:36:10;50.43;;;9.40;;
7426;SDS011;3755;59.316;18.092;2024-02-15T14:39:13;47.33;;;10.43;;
7426;SDS011;3755;59.316;18.092;2024-02-15T14:42:22;46.73;;;10.53;;
7426;SDS011;3755;59.316;18.092;2024-02-15T14:45:13;44.53;;;11.00;;
7426;SDS011;3755;59.316;18.092;2024-02-15T14:48:00;71.30;;;12.73;;
7426;SDS011;3755;59.316;18.092;2024-02-15T14:51:14;29.93;;;11.87;;
7426;SDS011;3755;59.316;18.092;2024-02-15T14:53:44;33.33;;;12.07;;
7426;SDS011;3755;59.316;18.092;2024-02-15T14:56:33;33.57;;;11.07;;
7426;SDS011;3755;59.316;18.092;2024-02-15T14:59:16;51.53;;;10.70;;
7426;SDS011;3755;59.316;18.092;2024-02-15T15:01:50;25.60;;;10.07;;
7426;SDS011;3755;59.316;18.092;2024-02-15T15:04:17;30.67;;;10.67;;
7426;SDS011;3755;59.316;18.092;2024-02-15T15:06:45;44.70;;;12.17;;
7426;SDS011;3755;59.316;18.092;2024-02-15T15:09:32;40.30;;;12.07;;
7426;SDS011;3755;59.316;18.092;2024-02-15T15:12:20;115.40;;;14.60;;
7426;SDS011;3755;59.316;18.092;2024-02-15T15:15:04;101.53;;;13.63;;
7426;SDS011;3755;59.316;18.092;2024-02-15T15:30:53;78.90;;;12.63;;
7426;SDS011;3755;59.316;18.092;2024-02-15T15:36:54;62.57;;;12.03;;
7426;SDS011;3755;59.316;18.092;2024-02-15T15:40:32;119.73;;;12.73;;
7426;SDS011;3755;59.316;18.092;2024-02-15T15:43:18;76.23;;;9.40;;
7426;SDS011;3755;59.316;18.092;2024-02-15T15:46:01;82.80;;;12.80;;
7426;SDS011;3755;59.316;18.092;2024-02-15T15:48:42;93.93;;;13.03;;
7426;SDS011;3755;59.316;18.092;2024-02-15T15:51:17;57.17;;;12.43;;
7426;SDS011;3755;59.316;18.092;2024-02-15T15:54:17;77.70;;;13.57;;
7426;SDS011;3755;59.316;18.092;2024-02-15T15:57:21;103.83;;;14.50;;
7426;SDS011;3755;59.316;18.092;2024-02-15T16:00:19;78.27;;;12.93;;
7426;SDS011;3755;59.316;18.092;2024-02-15T16:06:45;179.20;;;26.30;;
7426;SDS011;3755;59.316;18.092;2024-02-15T16:09:47;100.10;;;21.73;;
7426;SDS011;3755;59.316;18.092;2024-02-15T16:12:24;98.70;;;17.87;;
7426;SDS011;3755;59.316;18.092;2024-02-15T16:15:08;124.60;;;15.23;;
7426;SDS011;3755;59.316;18.092;2024-02-15T16:17:51;107.20;;;13.33;;
7426;SDS011;3755;59.316;18.092;2024-02-15T16:20:19;108.93;;;11.77;;
7426;SDS011;3755;59.316;18.092;2024-02-15T16:22:50;114.17;;;13.20;;
7426;SDS011;3755;59.316;18.092;2024-02-15T16:25:17;228.37;;;17.40;;
7426;SDS011;3755;59.316;18.092;2024-02-15T16:27:45;167.03;;;14.80;;
7426;SDS011;3755;59.316;18.092;2024-02-15T16:30:13;89.47;;;12.30;;